Time;durP1;ratioP1;P1;durP2;ratioP2;P2;SDS_P1;SDS_P2;PMS_P1;PMS_P2;Temp;Humidity;BMP_temperature;BMP_pressure;BME280_temperature;BME280_humidity;BME280_pressure;Samples;Min_cycle;Max_cycle;Signal;HPM_P1;HPM_P2
2020/12/30 00:01:27;;;;;;;24.77;15.05;;;8.30;72.30;;;;;;4987149;28;20037;-74
2020/12/30 00:03:53;;;;;;;24.63;14.80;;;8.30;72.30;;;;;;4990517;28;20030;-75
2020/12/30 00:06:20;;;;;;;29.35;15.13;;;8.20;72.30;;;;;;4994218;28;20057;-74
2020/12/30 00:08:49;;;;;;;23.90;14.95;;;8.20;72.40;;;;;;5009534;28;20030;-74
2020/12/30 00:11:18;;;;;;;25.58;16.17;;;8.20;72.50;;;;;;5009669;28;20041;-74
2020/12/30 00:13:44;;;;;;;23.83;13.82;;;8.20;72.50;;;;;;4974789;28;20038;-74
2020/12/30 00:16:09;;;;;;;24.10;14.40;;;8.10;72.40;;;;;;5000696;28;20036;-74
2020/12/30 00:18:35;;;;;;;26.75;14.95;;;8.10;72.30;;;;;;5010973;28;20029;-74
2020/12/30 00:21:01;;;;;;;26.02;15.35;;;8.10;72.30;;;;;;5008797;28;20550;-73
2020/12/30 00:23:26;;;;;;;29.42;16.90;;;8.10;72.40;;;;;;5010657;28;20045;-74
2020/12/30 00:25:52;;;;;;;25.67;15.48;;;8.00;72.40;;;;;;4979476;28;20034;-73
2020/12/30 00:28:18;;;;;;;30.95;17.77;;;8.00;72.40;;;;;;5011076;28;20030;-74
2020/12/30 00:30:44;;;;;;;30.50;17.23;;;8.00;72.40;;;;;;5005229;28;20113;-74
2020/12/30 00:33:10;;;;;;;27.92;16.90;;;7.90;72.30;;;;;;4993814;28;20060;-74
2020/12/30 00:35:36;;;;;;;25.52;15.63;;;7.90;72.30;;;;;;5008931;28;20426;-74
2020/12/30 00:38:02;;;;;;;22.92;15.00;;;7.90;72.40;;;;;;4998033;28;20022;-74
2020/12/30 00:40:28;;;;;;;29.55;18.45;;;7.90;72.30;;;;;;4993098;28;20049;-73
2020/12/30 00:42:54;;;;;;;25.20;14.98;;;7.80;72.20;;;;;;5009501;28;20037;-73
2020/12/30 00:45:19;;;;;;;28.05;16.98;;;7.80;72.20;;;;;;5009540;28;20050;-73
2020/12/30 00:47:45;;;;;;;24.23;14.95;;;7.80;72.20;;;;;;4992329;28;20045;-74
2020/12/30 00:50:10;;;;;;;27.33;16.23;;;7.70;72.20;;;;;;5009267;28;20473;-73
2020/12/30 00:52:36;;;;;;;29.20;17.63;;;7.70;72.20;;;;;;5008834;28;20038;-74
2020/12/30 00:55:03;;;;;;;24.83;17.52;;;7.70;72.10;;;;;;5005380;28;20041;-73
2020/12/30 00:57:29;;;;;;;25.23;15.67;;;7.70;72.10;;;;;;4994242;28;20118;-73
2020/12/30 00:59:54;;;;;;;28.67;16.90;;;7.60;72.10;;;;;;5009073;28;20534;-73
2020/12/30 01:02:20;;;;;;;28.50;17.17;;;7.60;72.20;;;;;;4998395;28;20030;-73
2020/12/30 01:04:46;;;;;;;29.50;17.77;;;7.50;72.20;;;;;;5004554;28;20057;-73
2020/12/30 01:07:12;;;;;;;30.40;18.07;;;7.50;72.30;;;;;;5003537;28;20515;-74
2020/12/30 01:09:38;;;;;;;29.20;16.60;;;7.50;72.30;;;;;;5005703;28;20031;-74
2020/12/30 01:12:05;;;;;;;30.53;18.10;;;7.50;72.40;;;;;;4992628;28;20461;-74
2020/12/30 01:14:31;;;;;;;28.50;17.60;;;7.50;72.30;;;;;;4993898;28;20048;-74
2020/12/30 01:16:57;;;;;;;31.85;17.92;;;7.50;72.30;;;;;;5001559;28;20025;-74
2020/12/30 01:19:24;;;;;;;26.27;17.83;;;7.50;72.30;;;;;;4985769;28;20034;-74
2020/12/30 01:21:50;;;;;;;28.60;16.83;;;7.40;72.30;;;;;;4983768;28;20055;-74
2020/12/30 01:24:16;;;;;;;30.20;17.73;;;7.40;72.20;;;;;;5009402;28;20463;-74
2020/12/30 01:26:43;;;;;;;29.33;18.07;;;7.40;72.30;;;;;;4979331;28;20037;-74
2020/12/30 01:29:09;;;;;;;29.93;18.83;;;7.40;72.30;;;;;;5009204;28;20188;-73
2020/12/30 01:31:36;;;;;;;33.20;19.17;;;7.40;72.40;;;;;;5009307;28;20527;-74
2020/12/30 01:34:04;;;;;;;33.33;19.60;;;7.30;72.30;;;;;;5009953;28;20448;-74
2020/12/30 01:36:29;;;;;;;29.97;18.50;;;7.30;72.20;;;;;;4993859;28;20022;-74
2020/12/30 01:38:56;;;;;;;32.50;18.47;;;7.30;72.20;;;;;;5009795;28;20037;-74
2020/12/30 01:41:22;;;;;;;38.90;19.30;;;7.30;72.20;;;;;;4974553;28;20488;-74
2020/12/30 01:43:58;;;;;;;33.10;19.60;;;7.30;72.30;;;;;;4983420;28;20081;-74
2020/12/30 01:46:36;;;;;;;36.20;18.77;;;7.20;72.30;;;;;;5006443;28;20057;-74
2020/12/30 01:49:04;;;;;;;30.00;18.60;;;7.20;72.60;;;;;;4986944;28;20035;-73
2020/12/30 01:51:31;;;;;;;29.63;19.10;;;7.30;72.70;;;;;;5007366;28;20021;-73
2020/12/30 01:53:58;;;;;;;32.50;19.00;;;7.30;72.70;;;;;;4993831;28;20037;-73
2020/12/30 01:56:27;;;;;;;31.50;17.73;;;7.30;72.60;;;;;;5009584;28;20037;-74
2020/12/30 01:58:53;;;;;;;29.93;19.53;;;7.40;72.60;;;;;;4989371;28;20084;-74
2020/12/30 02:01:23;;;;;;;31.90;20.13;;;7.40;72.50;;;;;;5008743;28;20026;-74
2020/12/30 02:03:52;;;;;;;30.87;18.87;;;7.40;72.30;;;;;;5004157;28;20026;-74
2020/12/30 02:06:17;;;;;;;34.53;21.27;;;7.40;72.40;;;;;;5001323;28;20034;-73
2020/12/30 02:08:43;;;;;;;29.30;18.03;;;7.30;72.50;;;;;;5007125;28;20101;-74
2020/12/30 02:11:09;;;;;;;29.88;17.75;;;7.30;72.80;;;;;;5009724;28;20061;-72
2020/12/30 02:13:34;;;;;;;29.77;17.00;;;7.20;73.00;;;;;;5005514;28;20477;-74
2020/12/30 02:16:01;;;;;;;29.13;19.13;;;7.20;72.90;;;;;;5009486;28;20492;-74
2020/12/30 02:18:26;;;;;;;28.23;18.27;;;7.20;73.00;;;;;;4991914;28;20104;-74
2020/12/30 02:20:52;;;;;;;30.40;17.80;;;7.10;73.10;;;;;;5008439;28;20038;-74
2020/12/30 02:23:19;;;;;;;27.67;17.73;;;7.20;73.20;;;;;;5006464;28;20073;-73
2020/12/30 02:25:44;;;;;;;33.40;19.73;;;7.10;73.10;;;;;;5008668;28;20121;-73
2020/12/30 02:28:11;;;;;;;32.97;18.83;;;7.20;73.00;;;;;;5009531;28;20157;-73
2020/12/30 02:30:37;;;;;;;29.30;19.27;;;7.10;72.80;;;;;;4982839;28;20069;-73
2020/12/30 02:33:07;;;;;;;32.00;19.83;;;7.10;72.90;;;;;;5004424;28;20057;-73
2020/12/30 02:35:33;;;;;;;31.43;19.57;;;7.10;73.00;;;;;;5003894;28;20099;-73
2020/12/30 02:37:58;;;;;;;32.37;18.87;;;7.10;73.10;;;;;;5000821;28;20026;-73
2020/12/30 02:40:24;;;;;;;32.50;19.10;;;7.10;73.00;;;;;;5012232;28;20033;-73
2020/12/30 02:42:51;;;;;;;29.97;18.97;;;7.10;72.70;;;;;;5009689;28;20034;-73
2020/12/30 02:45:17;;;;;;;29.77;18.40;;;7.20;72.60;;;;;;5011782;28;20498;-73
2020/12/30 02:47:42;;;;;;;33.07;18.80;;;7.20;72.50;;;;;;5012310;28;20138;-73
2020/12/30 02:50:08;;;;;;;34.13;19.33;;;7.20;72.40;;;;;;4996141;28;20050;-73
2020/12/30 02:52:34;;;;;;;29.30;18.00;;;7.20;72.40;;;;;;4977623;28;20061;-73
2020/12/30 02:54:59;;;;;;;28.83;18.57;;;7.30;72.40;;;;;;5016321;28;20041;-73
2020/12/30 02:57:25;;;;;;;31.60;20.10;;;7.20;72.20;;;;;;5009469;28;20045;-74
2020/12/30 02:59:56;;;;;;;28.05;18.90;;;7.20;72.40;;;;;;5003013;28;20109;-73
2020/12/30 03:02:25;;;;;;;30.80;18.57;;;7.20;72.30;;;;;;5010782;28;20053;-73
2020/12/30 03:04:51;;;;;;;36.70;18.93;;;7.20;72.30;;;;;;5012760;28;20045;-73
2020/12/30 03:07:17;;;;;;;29.63;17.90;;;7.20;72.30;;;;;;4993217;28;20031;-73
2020/12/30 03:09:43;;;;;;;32.17;18.67;;;7.10;72.50;;;;;;5004940;28;20037;-73
2020/12/30 03:12:09;;;;;;;34.40;18.60;;;7.00;72.70;;;;;;5002706;28;20037;-73
2020/12/30 03:14:34;;;;;;;27.27;16.67;;;7.00;72.90;;;;;;5012022;28;20487;-74
2020/12/30 03:17:00;;;;;;;27.97;17.10;;;6.90;73.00;;;;;;5009880;28;20128;-73
2020/12/30 03:19:25;;;;;;;29.67;17.43;;;6.80;73.30;;;;;;5005050;28;20042;-73
2020/12/30 03:21:52;;;;;;;32.10;17.10;;;6.80;73.50;;;;;;5010443;28;20038;-73
2020/12/30 03:24:18;;;;;;;28.73;18.30;;;6.80;73.50;;;;;;4993882;28;20034;-73
2020/12/30 03:26:44;;;;;;;28.57;17.13;;;6.90;73.50;;;;;;5009664;28;20042;-73
2020/12/30 03:29:10;;;;;;;32.73;18.23;;;6.90;73.40;;;;;;5012079;28;20026;-73
2020/12/30 03:31:35;;;;;;;26.40;16.77;;;7.00;73.40;;;;;;4994141;28;20026;-73
2020/12/30 03:34:01;;;;;;;31.27;18.87;;;7.10;73.30;;;;;;4999656;28;20046;-73
2020/12/30 03:36:27;;;;;;;30.30;17.43;;;7.10;73.10;;;;;;4992061;28;20057;-73
2020/12/30 03:38:53;;;;;;;30.55;18.27;;;7.20;73.00;;;;;;5010254;28;20033;-73
2020/12/30 03:41:18;;;;;;;30.23;19.47;;;7.30;72.80;;;;;;5010232;28;20033;-73
2020/12/30 03:43:44;;;;;;;28.03;16.23;;;7.30;72.70;;;;;;4993197;28;20045;-73
2020/12/30 03:46:10;;;;;;;32.30;17.37;;;7.40;72.60;;;;;;5005247;28;20049;-73
2020/12/30 03:48:35;;;;;;;30.83;18.80;;;7.40;72.40;;;;;;4992423;28;20065;-74
2020/12/30 03:51:01;;;;;;;29.40;19.02;;;7.40;72.40;;;;;;5004720;28;20050;-73
2020/12/30 03:53:27;;;;;;;29.33;17.50;;;7.40;72.50;;;;;;5008700;28;20092;-73
2020/12/30 03:55:53;;;;;;;27.00;16.67;;;7.50;72.60;;;;;;5004237;28;20033;-73
2020/12/30 03:58:20;;;;;;;31.75;17.75;;;7.50;72.60;;;;;;5009607;28;20025;-73
2020/12/30 04:00:46;;;;;;;32.27;18.93;;;7.50;72.60;;;;;;5003782;28;20030;-74
2020/12/30 04:03:12;;;;;;;31.77;19.00;;;7.50;72.50;;;;;;4995788;28;20027;-73
2020/12/30 04:05:37;;;;;;;33.90;19.57;;;7.50;72.50;;;;;;4991442;28;20112;-73
2020/12/30 04:08:04;;;;;;;32.77;18.17;;;7.50;72.60;;;;;;5008167;28;20038;-73
2020/12/30 04:10:29;;;;;;;28.27;18.63;;;7.60;72.70;;;;;;5000035;28;20116;-73
2020/12/30 04:12:55;;;;;;;33.53;19.20;;;7.60;72.70;;;;;;5012078;28;20092;-73
2020/12/30 04:15:21;;;;;;;29.60;18.33;;;7.50;72.80;;;;;;5002665;28;20447;-73
2020/12/30 04:17:46;;;;;;;30.93;18.43;;;7.50;72.90;;;;;;4994061;28;20344;-73
2020/12/30 04:20:12;;;;;;;28.27;18.80;;;7.50;73.00;;;;;;4976242;28;20439;-73
2020/12/30 04:22:37;;;;;;;38.20;21.53;;;7.50;73.00;;;;;;5003438;28;20130;-72
2020/12/30 04:25:03;;;;;;;31.20;17.60;;;7.50;73.00;;;;;;5009627;28;20148;-73
2020/12/30 04:27:29;;;;;;;29.03;19.17;;;7.60;73.00;;;;;;4991558;28;20523;-73
2020/12/30 04:29:55;;;;;;;28.97;18.57;;;7.60;72.90;;;;;;4999837;28;20110;-73
2020/12/30 04:32:20;;;;;;;33.10;19.00;;;7.60;72.90;;;;;;4994391;28;20112;-73
2020/12/30 04:34:46;;;;;;;30.00;19.17;;;7.50;72.90;;;;;;5003203;28;20512;-73
2020/12/30 04:37:13;;;;;;;30.08;19.10;;;7.40;73.00;;;;;;4991592;28;20058;-73
2020/12/30 04:39:39;;;;;;;29.13;18.98;;;7.40;73.00;;;;;;5009537;28;20045;-73
2020/12/30 04:42:08;;;;;;;30.87;18.07;;;7.40;73.20;;;;;;5008727;28;20452;-73
2020/12/30 04:44:37;;;;;;;30.80;17.73;;;7.30;73.40;;;;;;4995253;28;20038;-73
2020/12/30 04:47:04;;;;;;;26.87;17.00;;;7.20;73.70;;;;;;5006468;28;20029;-73
2020/12/30 04:49:30;;;;;;;34.67;19.17;;;7.30;73.90;;;;;;4991072;28;20032;-73
2020/12/30 04:51:56;;;;;;;30.85;18.17;;;7.20;73.90;;;;;;5002838;28;20072;-73
2020/12/30 04:54:23;;;;;;;31.80;19.10;;;7.30;74.00;;;;;;4999704;28;20558;-73
2020/12/30 04:56:48;;;;;;;31.93;19.90;;;7.30;73.90;;;;;;4977023;28;20025;-73
2020/12/30 04:59:18;;;;;;;34.63;19.47;;;7.40;73.90;;;;;;5005235;28;20034;-73
2020/12/30 05:02:04;;;;;;;32.25;19.60;;;7.40;73.80;;;;;;4994848;28;20108;-73
2020/12/30 05:04:31;;;;;;;28.90;18.50;;;7.50;73.70;;;;;;5010199;28;20030;-73
2020/12/30 05:07:01;;;;;;;28.27;17.87;;;7.40;73.70;;;;;;5007055;28;20061;-73
2020/12/30 05:09:28;;;;;;;34.00;21.13;;;7.50;73.80;;;;;;4996507;28;20488;-72
2020/12/30 05:11:53;;;;;;;27.52;17.88;;;7.50;73.70;;;;;;4986747;28;20119;-73
2020/12/30 05:14:19;;;;;;;28.63;17.77;;;7.50;73.70;;;;;;4992869;28;20026;-74
2020/12/30 05:16:45;;;;;;;33.63;19.30;;;7.50;73.80;;;;;;5009584;28;20038;-73
2020/12/30 05:19:10;;;;;;;32.43;18.03;;;7.50;74.00;;;;;;4989901;28;20045;-73
2020/12/30 05:21:36;;;;;;;28.03;17.53;;;7.50;74.10;;;;;;5001538;28;20037;-73
2020/12/30 05:24:04;;;;;;;29.33;20.43;;;7.50;73.90;;;;;;4992762;28;20033;-73
2020/12/30 05:26:31;;;;;;;28.92;17.92;;;7.60;73.90;;;;;;5010088;28;20042;-73
2020/12/30 05:28:57;;;;;;;33.55;20.65;;;8.50;74.40;;;;;;5006587;28;20032;-73
2020/12/30 05:31:22;;;;;;;30.92;19.42;;;7.50;74.00;;;;;;5009760;28;20141;-72
2020/12/30 05:33:49;;;;;;;34.55;22.38;;;7.50;74.30;;;;;;4999805;28;20045;-73
2020/12/30 05:36:15;;;;;;;33.63;20.30;;;7.50;74.30;;;;;;5003000;28;20058;-73
2020/12/30 05:38:40;;;;;;;30.33;19.55;;;7.40;74.40;;;;;;4992156;28;20145;-73
2020/12/30 05:41:17;;;;;;;29.40;17.27;;;7.50;74.60;;;;;;5009806;28;20364;-73
2020/12/30 05:43:43;;;;;;;31.75;20.25;;;7.50;74.50;;;;;;4974603;28;20030;-73
2020/12/30 05:46:09;;;;;;;28.33;18.00;;;7.60;74.30;;;;;;4977311;28;20084;-73
2020/12/30 05:48:34;;;;;;;30.57;19.30;;;7.60;74.30;;;;;;5010258;28;20034;-73
2020/12/30 05:51:00;;;;;;;35.20;19.70;;;7.70;74.30;;;;;;5007843;28;20103;-73
2020/12/30 05:53:26;;;;;;;32.53;21.15;;;7.70;74.20;;;;;;5009109;28;20447;-73
2020/12/30 05:56:07;;;;;;;32.92;20.55;;;7.70;74.10;;;;;;5000218;28;20041;-73
2020/12/30 05:58:40;;;;;;;30.55;20.05;;;7.80;74.20;;;;;;5002188;28;20067;-72
2020/12/30 06:01:23;;;;;;;31.65;19.27;;;7.80;74.10;;;;;;4990674;28;20026;-74
2020/12/30 06:03:49;;;;;;;30.10;20.70;;;7.80;74.00;;;;;;5009603;28;20534;-73
2020/12/30 06:06:20;;;;;;;32.07;20.20;;;7.80;74.00;;;;;;5008468;28;20034;-73
2020/12/30 06:08:47;;;;;;;32.97;20.45;;;7.80;74.00;;;;;;4999290;28;20049;-73
2020/12/30 06:11:15;;;;;;;33.90;20.38;;;7.70;74.00;;;;;;5013233;28;20068;-73
2020/12/30 06:13:45;;;;;;;33.55;21.58;;;7.70;74.10;;;;;;4991471;28;20108;-73
2020/12/30 06:16:18;;;;;;;28.45;18.63;;;7.70;74.20;;;;;;5008840;28;20038;-73
2020/12/30 06:18:45;;;;;;;;;;;7.70;74.80;;;;;;4999620;28;20033;-73
2020/12/30 06:21:11;;;;;;;35.93;21.67;;;7.70;74.20;;;;;;5005060;28;19917;-73
2020/12/30 06:23:41;;;;;;;31.38;19.02;;;7.70;74.20;;;;;;5012821;28;20461;-73
2020/12/30 06:26:10;;;;;;;27.90;18.10;;;7.70;74.30;;;;;;5012027;28;20034;-72
2020/12/30 06:28:36;;;;;;;30.95;19.27;;;7.60;74.40;;;;;;5012228;28;20080;-73
2020/12/30 06:31:02;;;;;;;30.90;20.77;;;7.60;74.60;;;;;;5010208;28;20026;-73
2020/12/30 06:33:28;;;;;;;32.70;20.67;;;7.60;74.70;;;;;;4992928;28;20060;-73
2020/12/30 06:35:57;;;;;;;28.53;18.87;;;7.60;74.70;;;;;;4993868;28;20054;-73
2020/12/30 06:38:28;;;;;;;32.88;20.88;;;7.50;74.80;;;;;;5005588;28;20087;-73
2020/12/30 06:41:02;;;;;;;30.83;20.13;;;7.50;75.20;;;;;;5013325;28;20034;-73
2020/12/30 06:43:46;;;;;;;27.88;18.73;;;7.50;75.30;;;;;;5006426;28;20026;-73
2020/12/30 06:46:12;;;;;;;;;;;7.40;75.90;;;;;;5012751;28;20045;-72
2020/12/30 06:48:58;;;;;;;31.67;18.63;;;7.60;74.90;;;;;;4998967;28;20009;-73
2020/12/30 06:51:24;;;;;;;29.15;18.95;;;7.60;75.00;;;;;;5011347;28;20041;-75
2020/12/30 06:53:53;;;;;;;29.42;18.40;;;7.60;75.20;;;;;;5011671;28;20103;-72
2020/12/30 06:56:42;;;;;;;33.73;19.43;;;7.50;75.30;;;;;;5012832;28;20038;-73
2020/12/30 06:59:09;;;;;;;29.08;18.67;;;7.60;75.30;;;;;;5010781;28;20100;-74
2020/12/30 07:01:58;;;;;;;30.57;19.23;;;7.60;75.20;;;;;;4994936;28;20151;-74
2020/12/30 07:04:25;;;;;;;32.13;20.07;;;7.70;75.10;;;;;;5012249;28;20026;-73
2020/12/30 07:06:53;;;;;;;35.77;20.50;;;7.70;75.00;;;;;;5009498;28;20188;-73
2020/12/30 07:09:34;;;;;;;31.50;21.20;;;7.80;74.90;;;;;;5010949;28;20115;-73
2020/12/30 07:12:06;;;;;;;29.25;19.88;;;7.70;74.90;;;;;;5004443;28;20049;-73
2020/12/30 07:14:35;;;;;;;37.10;23.02;;;7.80;75.00;;;;;;5005578;28;20038;-74
2020/12/30 07:17:02;;;;;;;41.38;25.63;;;7.70;74.90;;;;;;5010190;28;20026;-74
2020/12/30 07:19:30;;;;;;;35.85;23.83;;;7.80;74.90;;;;;;4994396;28;20030;-74
2020/12/30 07:22:13;;;;;;;35.50;22.48;;;7.80;74.80;;;;;;4996167;28;20065;-75
2020/12/30 07:24:52;;;;;;;32.80;21.10;;;7.80;74.90;;;;;;5004152;28;20084;-74
2020/12/30 07:27:18;;;;;;;31.52;19.75;;;7.80;74.80;;;;;;5011149;28;20030;-74
2020/12/30 07:29:46;;;;;;;34.23;21.50;;;7.90;74.80;;;;;;5011872;28;20044;-74
2020/12/30 07:32:13;;;;;;;31.03;19.73;;;7.90;74.60;;;;;;5001374;28;20030;-75
2020/12/30 07:35:00;;;;;;;31.70;19.90;;;7.90;74.70;;;;;;5012075;28;20068;-74
2020/12/30 07:37:26;;;;;;;30.05;19.38;;;7.90;74.80;;;;;;5007829;28;20048;-75
2020/12/30 07:39:52;;;;;;;30.73;18.63;;;7.80;74.80;;;;;;4991744;28;20034;-73
2020/12/30 07:42:19;;;;;;;30.13;19.47;;;7.70;75.20;;;;;;5006690;28;20030;-74
2020/12/30 07:44:45;;;;;;;31.05;17.60;;;7.60;75.70;;;;;;4992984;28;20065;-74
2020/12/30 07:47:11;;;;;;;27.92;17.30;;;7.70;75.40;;;;;;5010585;28;20440;-74
2020/12/30 07:49:36;;;;;;;29.63;18.45;;;7.70;75.40;;;;;;5007420;28;20476;-75
2020/12/30 07:52:03;;;;;;;28.00;16.63;;;7.70;75.40;;;;;;5006518;28;20049;-74
2020/12/30 07:54:30;;;;;;;27.17;17.47;;;7.80;75.30;;;;;;5010137;28;20045;-73
2020/12/30 07:57:05;;;;;;;27.60;17.73;;;7.90;75.20;;;;;;5004577;28;20141;-74
2020/12/30 07:59:33;;;;;;;30.03;18.07;;;7.90;75.00;;;;;;4999517;28;20745;-74
2020/12/30 08:01:59;;;;;;;25.85;16.92;;;8.00;75.00;;;;;;4992956;28;20038;-74
2020/12/30 08:04:26;;;;;;;25.43;17.87;;;8.00;74.80;;;;;;4973312;28;20045;-74
2020/12/30 08:06:52;;;;;;;25.83;16.77;;;8.10;74.80;;;;;;4988114;28;20112;-73
2020/12/30 08:09:18;;;;;;;27.43;19.90;;;8.10;74.60;;;;;;4991463;28;20038;-75
2020/12/30 08:12:01;;;;;;;25.52;16.42;;;8.10;74.70;;;;;;4989970;28;20054;-73
2020/12/30 08:14:28;;;;;;;27.17;16.25;;;8.10;74.90;;;;;;4991030;28;20029;-75
2020/12/30 08:16:58;;;;;;;30.00;17.33;;;8.10;74.90;;;;;;4990720;28;20033;-73
2020/12/30 08:19:35;;;;;;;28.03;16.43;;;8.10;75.00;;;;;;4997645;28;20030;-74
2020/12/30 08:22:04;;;;;;;25.52;15.85;;;8.10;75.00;;;;;;4990659;28;20034;-75
2020/12/30 08:24:31;;;;;;;27.40;16.42;;;8.10;75.00;;;;;;5001374;28;20096;-79
2020/12/30 08:26:57;;;;;;;30.15;17.88;;;8.10;75.10;;;;;;4979986;28;20099;-78
2020/12/30 08:29:31;;;;;;;26.45;15.85;;;8.20;75.00;;;;;;4996693;28;20027;-80
2020/12/30 08:31:58;;;;;;;;;;;8.20;75.60;;;;;;4995473;28;20026;-77
2020/12/30 08:34:28;;;;;;;27.38;17.05;;;8.30;74.80;;;;;;4991791;28;19921;-79
2020/12/30 08:37:05;;;;;;;24.98;15.93;;;8.30;74.80;;;;;;4974878;28;20026;-84
2020/12/30 08:39:35;;;;;;;25.90;17.23;;;8.30;74.90;;;;;;4974744;28;20072;-82
2020/12/30 08:42:07;;;;;;;26.98;15.52;;;8.30;74.90;;;;;;5000482;28;20105;-80
2020/12/30 08:44:38;;;;;;;26.42;16.90;;;8.30;75.10;;;;;;4976513;28;20035;-83
2020/12/30 08:47:06;;;;;;;27.35;18.50;;;8.30;75.20;;;;;;4993109;28;20030;-77
2020/12/30 08:49:33;;;;;;;31.80;18.65;;;8.30;75.20;;;;;;4995398;28;20025;-74
2020/12/30 08:52:16;;;;;;;28.48;18.10;;;8.30;75.40;;;;;;4994748;28;20037;-84
2020/12/30 08:54:42;;;;;;;27.88;18.48;;;8.20;75.40;;;;;;4980379;28;20694;-87
2020/12/30 08:57:07;;;;;;;29.38;17.75;;;8.20;75.50;;;;;;4992465;28;21212;-73
2020/12/30 08:59:33;;;;;;;31.30;19.55;;;8.20;75.60;;;;;;4992549;28;20037;-72
2020/12/30 09:02:11;;;;;;;29.30;18.20;;;8.20;75.70;;;;;;4989070;28;20041;-72
2020/12/30 09:04:51;;;;;;;29.35;18.13;;;8.20;76.00;;;;;;4991595;28;20042;-73
2020/12/30 09:07:27;;;;;;;27.08;17.48;;;8.20;76.00;;;;;;4987561;28;20039;-73
2020/12/30 09:10:19;;;;;;;27.70;18.35;;;8.20;76.00;;;;;;4989238;28;20045;-72
2020/12/30 09:12:45;;;;;;;30.75;20.15;;;8.20;76.10;;;;;;4988620;28;20419;-73
2020/12/30 09:15:15;;;;;;;30.10;18.65;;;8.20;76.10;;;;;;4973048;28;20049;-72
2020/12/30 09:17:41;;;;;;;30.33;18.58;;;8.20;76.10;;;;;;4990397;28;20041;-73
2020/12/30 09:20:15;;;;;;;32.80;19.70;;;8.20;76.20;;;;;;4993490;28;20119;-72
2020/12/30 09:22:42;;;;;;;25.67;17.38;;;8.20;76.10;;;;;;5009796;28;20495;-72
2020/12/30 09:25:23;;;;;;;29.17;18.85;;;8.30;76.20;;;;;;5008772;28;20112;-73
2020/12/30 09:27:48;;;;;;;27.98;17.85;;;8.30;76.10;;;;;;5009761;28;20120;-73
2020/12/30 09:30:16;;;;;;;27.95;18.42;;;8.30;76.00;;;;;;5005951;28;20117;-73
2020/12/30 09:32:43;;;;;;;34.38;21.05;;;8.30;75.80;;;;;;5009925;28;20144;-73
2020/12/30 09:35:11;;;;;;;28.70;18.13;;;8.30;75.90;;;;;;4996861;28;20141;-73
2020/12/30 09:37:38;;;;;;;29.15;18.75;;;8.30;76.00;;;;;;5008534;28;20161;-73
2020/12/30 09:40:09;;;;;;;29.23;19.35;;;8.30;76.00;;;;;;5008496;28;20139;-72
2020/12/30 09:42:35;;;;;;;27.90;18.13;;;8.40;76.00;;;;;;5008165;28;20493;-73
2020/12/30 09:45:10;;;;;;;33.38;19.75;;;8.40;76.00;;;;;;4991726;28;20365;-72
2020/12/30 09:47:36;;;;;;;30.85;21.23;;;8.50;75.80;;;;;;5008860;28;20026;-73
2020/12/30 09:50:08;;;;;;;28.95;19.33;;;8.50;75.80;;;;;;5001954;28;20026;-72
2020/12/30 09:52:44;;;;;;;31.27;19.58;;;8.50;75.80;;;;;;5009389;28;20081;-73
2020/12/30 09:55:11;;;;;;;27.35;19.35;;;8.60;76.00;;;;;;4992010;28;20356;-73
2020/12/30 09:57:37;;;;;;;28.48;19.05;;;8.60;75.80;;;;;;5009630;28;20067;-73
2020/12/30 10:00:08;;;;;;;30.45;19.02;;;8.60;75.80;;;;;;4998385;28;20029;-72
2020/12/30 10:02:34;;;;;;;26.70;18.23;;;8.50;76.10;;;;;;4996151;28;20030;-73
2020/12/30 10:05:00;;;;;;;31.45;20.58;;;8.50;76.10;;;;;;5000456;28;20045;-86
2020/12/30 10:07:26;;;;;;;26.95;18.05;;;8.60;76.10;;;;;;4966405;28;20053;-85
2020/12/30 10:09:52;;;;;;;28.83;17.98;;;8.70;75.80;;;;;;4981017;28;20034;-82
2020/12/30 10:12:22;;;;;;;26.80;18.83;;;8.70;75.80;;;;;;4998401;28;20038;-84
2020/12/30 10:14:47;;;;;;;28.40;18.98;;;8.70;75.80;;;;;;5001067;28;20052;-86
2020/12/30 10:17:13;;;;;;;29.60;19.48;;;8.70;75.80;;;;;;4979939;28;20033;-88
2020/12/30 10:19:39;;;;;;;31.13;19.23;;;8.70;75.80;;;;;;4991676;28;20956;-88
2020/12/30 10:22:06;;;;;;;27.65;18.88;;;8.70;75.90;;;;;;4976822;28;20041;-85
2020/12/30 10:24:32;;;;;;;28.70;19.42;;;8.60;75.80;;;;;;4992689;28;20030;-82
2020/12/30 10:26:58;;;;;;;29.92;18.38;;;8.60;75.90;;;;;;4975763;28;20038;-86
2020/12/30 10:29:24;;;;;;;25.27;17.10;;;8.70;76.10;;;;;;4958542;28;20060;-84
2020/12/30 10:31:50;;;;;;;31.88;20.75;;;8.70;75.90;;;;;;4999016;28;20038;-84
2020/12/30 10:34:15;;;;;;;25.42;18.45;;;8.70;75.90;;;;;;4974561;28;20496;-87
2020/12/30 10:36:44;;;;;;;28.67;19.75;;;8.80;75.80;;;;;;4974522;28;20093;-89
2020/12/30 10:39:10;;;;;;;29.40;19.50;;;8.90;75.60;;;;;;4975217;28;20116;-92
2020/12/30 10:41:36;;;;;;;26.30;18.63;;;8.80;75.60;;;;;;4979166;28;20049;-82
2020/12/30 10:44:02;;;;;;;33.05;21.55;;;8.80;75.80;;;;;;4976114;28;20042;-79
2020/12/30 10:46:27;;;;;;;30.73;20.77;;;8.70;75.80;;;;;;4993149;28;20038;-83
2020/12/30 10:48:53;;;;;;;28.33;18.08;;;8.80;75.80;;;;;;4946978;28;20165;-81
2020/12/30 10:51:19;;;;;;;27.17;19.10;;;8.80;75.80;;;;;;4989906;28;20031;-86
2020/12/30 10:53:45;;;;;;;31.73;20.20;;;8.90;75.50;;;;;;4995610;28;20388;-85
2020/12/30 10:56:12;;;;;;;36.75;20.30;;;9.00;75.30;;;;;;4980168;28;20045;-81
2020/12/30 10:58:38;;;;;;;32.38;20.88;;;9.00;75.10;;;;;;4993394;28;20025;-82
2020/12/30 11:01:13;;;;;;;29.02;19.55;;;9.00;75.10;;;;;;4972200;28;20487;-80
2020/12/30 11:03:40;;;;;;;27.05;18.90;;;9.00;75.40;;;;;;4991821;28;20039;-77
2020/12/30 11:06:07;;;;;;;31.52;20.50;;;9.00;75.60;;;;;;4989579;28;20081;-77
2020/12/30 11:08:33;;;;;;;32.80;18.60;;;8.90;75.50;;;;;;4963664;28;20039;-81
2020/12/30 11:11:01;;;;;;;26.13;18.48;;;9.00;75.50;;;;;;4976721;28;20038;-82
2020/12/30 11:13:27;;;;;;;26.80;18.60;;;9.00;75.50;;;;;;4997915;28;20355;-81
2020/12/30 11:15:53;;;;;;;29.77;19.23;;;9.00;75.50;;;;;;4993654;28;20085;-81
2020/12/30 11:18:20;;;;;;;24.08;17.27;;;9.00;75.50;;;;;;4975595;28;20049;-85
2020/12/30 11:20:46;;;;;;;26.75;16.60;;;9.00;75.60;;;;;;4973255;28;20034;-80
2020/12/30 11:23:12;;;;;;;29.33;17.30;;;9.00;75.70;;;;;;4992584;28;20065;-78
2020/12/30 11:25:40;;;;;;;25.98;17.75;;;9.10;75.60;;;;;;4993692;28;20078;-79
2020/12/30 11:28:05;;;;;;;26.02;17.40;;;11.10;76.60;;;;;;4997189;28;20034;-79
2020/12/30 11:30:31;;;;;;;24.48;17.08;;;9.20;75.40;;;;;;4991821;28;20030;-81
2020/12/30 11:32:57;;;;;;;23.90;16.42;;;9.30;75.30;;;;;;4978613;28;20487;-83
2020/12/30 11:35:24;;;;;;;26.88;17.25;;;9.30;75.20;;;;;;4975258;28;20537;-80
2020/12/30 11:37:50;;;;;;;27.83;16.92;;;9.30;74.90;;;;;;4992462;28;20046;-83
2020/12/30 11:40:16;;;;;;;24.73;17.48;;;9.30;74.90;;;;;;4977284;28;20756;-82
2020/12/30 11:42:41;;;;;;;26.17;16.33;;;9.20;75.10;;;;;;4997615;28;20069;-85
2020/12/30 11:45:08;;;;;;;21.90;15.70;;;9.20;75.20;;;;;;4994575;28;20042;-71
2020/12/30 11:47:34;;;;;;;26.40;17.23;;;9.30;75.20;;;;;;4976164;28;20026;-71
2020/12/30 11:49:59;;;;;;;24.00;16.20;;;9.30;75.10;;;;;;4971211;28;20044;-72
2020/12/30 11:52:25;;;;;;;25.92;16.63;;;9.30;75.10;;;;;;4995159;28;20034;-72
2020/12/30 11:54:51;;;;;;;26.05;18.05;;;9.50;75.40;;;;;;4992582;28;20707;-72
2020/12/30 11:57:17;;;;;;;21.05;14.07;;;9.30;75.30;;;;;;4992341;28;20563;-73
2020/12/30 11:59:42;;;;;;;22.83;16.20;;;9.30;75.30;;;;;;4990905;28;20046;-73
2020/12/30 12:02:08;;;;;;;22.45;15.13;;;9.30;75.20;;;;;;4995235;28;20068;-73
2020/12/30 12:04:34;;;;;;;23.77;15.65;;;9.40;75.10;;;;;;5005736;28;20037;-72
2020/12/30 12:07:00;;;;;;;21.23;14.30;;;9.30;75.10;;;;;;5006366;28;20448;-73
2020/12/30 12:09:27;;;;;;;25.33;15.70;;;9.40;75.10;;;;;;4975376;28;20038;-72
2020/12/30 12:11:53;;;;;;;21.30;14.75;;;9.50;75.10;;;;;;5007880;28;20433;-73
2020/12/30 12:14:19;;;;;;;22.95;13.95;;;9.50;75.00;;;;;;5010335;28;20030;-72
2020/12/30 12:16:56;;;;;;;19.95;12.80;;;9.60;74.70;;;;;;4993504;28;20090;-78
2020/12/30 12:19:26;;;;;;;19.02;12.70;;;9.50;74.90;;;;;;4985258;28;20352;-76
2020/12/30 12:21:52;;;;;;;19.67;12.48;;;9.50;75.10;;;;;;4993313;28;20038;-78
2020/12/30 12:24:18;;;;;;;20.23;13.38;;;9.40;75.10;;;;;;4992478;28;20089;-77
2020/12/30 12:26:44;;;;;;;19.67;13.55;;;9.40;75.30;;;;;;4989785;28;20057;-76
2020/12/30 12:29:40;;;;;;;19.30;12.05;;;9.40;75.40;;;;;;4973822;28;20037;-76
2020/12/30 12:32:20;;;;;;;14.77;10.13;;;9.40;75.30;;;;;;4972550;28;20125;-78
2020/12/30 12:34:48;;;;;;;18.17;10.23;;;9.50;75.30;;;;;;4995780;28;20207;-79
2020/12/30 12:37:16;;;;;;;16.50;10.68;;;9.60;75.20;;;;;;4992215;28;20127;-77
2020/12/30 12:39:43;;;;;;;17.05;10.88;;;9.60;74.90;;;;;;4990602;28;20038;-81
2020/12/30 12:42:09;;;;;;;15.43;9.88;;;9.60;74.90;;;;;;4974884;28;20045;-82